Latest Coastal Weather Observations for Port Kembla Harbour

IDN60701

Issued at 2:41 am EST Saturday 27 May 2017 (issued every 10 minutes, with the page automatically refreshed every 10 minutes)

About coastal observations | Map of coastal stations | Coastal observations for NSW | Marine services | Other Formats
Station Details ID: 068253 Name: PORT KEMBLA NTC AWS Lat: -34.47 Lon: 150.91 Height: 0.0 m
Data from the previous 72 hours. | See also: Recent months for locations in New South Wales
Date/Time
EST
Temp
°C
Wind Pressure Rain since
9am
mm
Weather Cloud Vis
km
Sea
Height
m
Swell
Dir  Spd
kts
Gust
kts
hPa Trend Height
m
Period
s
Dir
27/02:30am 14.5 WSW 4 5 1020.9 - - - - - - - - -
27/02:00am 14.6 WSW 5 6 1021.0 - - - - - - - - -
27/01:30am 14.5 WNW 2 4 1021.2 - - - - - - - - -
27/01:00am 14.3 SW 4 6 1021.2 - - - - - - - - -
27/12:30am 14.4 SW 3 5 1021.3 - - - - - - - - -
27/12:00am 14.5 WSW 3 5 1021.4 - - - - - - - - -
 
Date/Time
EST
Temp
°C
Wind Pressure Rain since
9am
mm
Weather Cloud Vis
km
Sea
Height
m
Swell
Dir  Spd
kts
Gust
kts
hPa Trend Height
m
Period
s
Dir
26/11:30pm 15.0 WSW 3 3 1021.4 - - - - - - - - -
26/11:00pm 15.0 WSW 3 4 1021.4 - - - - - - - - -
26/10:30pm 15.0 SW 4 5 1021.6 - - - - - - - - -
26/10:00pm 15.4 WSW 3 5 1021.6 - - - - - - - - -
26/09:30pm 15.2 WSW 4 5 1021.6 - - - - - - - - -
26/09:00pm 15.3 WSW 3 4 1021.6 - - - - - - - - -
26/08:30pm 15.5 SW 3 4 1021.5 - - - - - - - - -
26/08:00pm 15.6 SW 2 3 1021.4 - - - - - - - - -
26/07:30pm 15.7 SW 4 6 1021.2 - - - - - - - - -
26/07:00pm 16.1 SW 5 8 1021.0 - - - - - - - - -
26/06:30pm 16.9 SW 4 6 1020.8 - - - - - - - - -
26/06:00pm 17.5 SSW 4 7 1020.7 - - - - - - - - -
26/05:30pm 17.8 S 4 8 1020.4 - - - - - - - - -
26/05:00pm 17.9 S 3 11 1020.1 - - - - - - - - -
26/04:30pm 18.3 S 3 6 1020.0 - - - - - - - - -
26/04:00pm 18.4 S 5 9 1019.7 - - - - - - - - -
26/03:30pm 18.9 SSW 4 9 1019.7 - - - - - - - - -
26/03:00pm 19.0 SSW 5 9 1019.4 - - - - - - - - -
26/02:30pm 18.9 S 5 9 1019.6 - - - - - - - - -
26/02:00pm 19.0 S 5 8 1019.6 - - - - - - - - -
26/01:30pm 18.7 S 5 11 1019.6 - - - - - - - - -
26/01:00pm 18.6 S 5 11 1019.7 - - - - - - - - -
26/12:30pm 19.0 S 4 9 1019.8 - - - - - - - - -
26/12:00pm 18.4 SSW 6 11 1020.0 - - - - - - - - -
26/11:30am 18.6 SSW 6 11 1020.4 - - - - - - - - -
26/11:00am 17.5 WSW 6 11 1020.7 - - - - - - - - -
26/10:30am 17.3 WSW 9 12 1020.9 - - - - - - - - -
26/10:00am 16.8 W 8 11 1020.9 - - - - - - - - -
26/09:30am 16.2 W 7 10 1020.7 - - - - - - - - -
26/09:00am 15.6 W 6 9 1020.7 - - - - - - - - -
26/08:30am 14.3 W 6 7 1020.6 - - - - - - - - -
26/08:00am 13.3 W 6 7 1020.3 - - - - - - - - -
26/07:30am 13.2 W 7 8 1020.0 - - - - - - - - -
26/07:00am 12.8 WSW 5 5 1019.9 - - - - - - - - -
26/06:30am 13.1 W 5 7 1019.7 - - - - - - - - -
26/06:00am 12.8 WSW 6 8 1019.4 - - - - - - - - -
26/05:30am 12.7 WSW 6 7 1019.1 - - - - - - - - -
26/05:00am 12.9 WSW 6 7 1018.8 - - - - - - - - -
26/04:30am 13.2 WSW 6 7 1018.6 - - - - - - - - -
26/04:00am 13.1 WSW 5 6 1018.3 - - - - - - - - -
26/03:30am 13.5 WSW 5 6 1018.1 - - - - - - - - -
26/03:00am 13.4 W 6 8 1018.1 - - - - - - - - -
26/02:30am 13.6 W 8 10 1018.2 - - - - - - - - -
26/02:00am 13.7 W 9 10 1018.3 - - - - - - - - -
26/01:30am 13.7 W 8 10 1018.3 - - - - - - - - -
26/01:00am 13.9 W 8 10 1018.3 - - - - - - - - -
26/12:30am 13.7 W 6 7 1018.5 - - - - - - - - -
26/12:00am 14.5 WNW 5 8 1018.7 - - - - - - - - -
 
Date/Time
EST
Temp
°C
Wind Pressure Rain since
9am
mm
Weather Cloud Vis
km
Sea
Height
m
Swell
Dir  Spd
kts
Gust
kts
hPa Trend Height
m
Period
s
Dir
25/11:30pm 14.8 W 5 7 1018.8 - - - - - - - - -
25/11:00pm 15.0 W 6 9 1019.2 - - - - - - - - -
25/10:30pm 15.2 W 7 9 1019.2 - - - - - - - - -
25/10:00pm 15.3 NW 5 8 1019.4 - - - - - - - - -
25/09:30pm 15.3 WSW 4 6 1019.5 - - - - - - - - -
25/09:00pm 16.4 NW 5 7 1019.2 - - - - - - - - -
25/08:30pm 16.3 NW 3 6 1019.2 - - - - - - - - -
25/08:00pm 14.4 WSW 3 4 1019.3 - - - - - - - - -
25/07:30pm 14.5 WSW 5 6 1019.4 - - - - - - - - -
25/07:00pm 15.1 W 4 5 1019.2 - - - - - - - - -
25/06:30pm 15.7 WSW 4 5 1019.1 - - - - - - - - -
25/06:00pm 17.2 NNW 5 6 1018.8 - - - - - - - - -
25/05:30pm 17.5 N 4 7 1018.6 - - - - - - - - -
25/05:00pm 17.8 NNE 4 6 1018.3 - - - - - - - - -
25/04:30pm 17.9 NNE 4 5 1018.2 - - - - - - - - -
25/04:00pm 18.0 ENE 4 6 1018.2 - - - - - - - - -
25/03:30pm 17.9 ENE 5 6 1018.1 - - - - - - - - -
25/03:00pm 17.8 E 4 6 1018.1 - - - - - - - - -
25/02:30pm 17.9 E 4 6 1018.2 - - - - - - - - -
25/02:00pm 18.0 ESE 4 7 1018.2 - - - - - - - - -
25/01:30pm 18.0 ESE 5 7 1018.4 - - - - - - - - -
25/01:00pm 17.9 ESE 5 7 1018.7 - - - - - - - - -
25/12:30pm 17.8 SE 6 8 1019.1 - - - - - - - - -
25/12:00pm 17.9 SE 3 7 1019.5 - - - - - - - - -
25/11:30am 17.9 SW 3 6 1019.9 - - - - - - - - -
25/11:00am 17.6 SW 5 7 1020.1 - - - - - - - - -
25/10:30am 17.4 WSW 6 8 1020.5 - - - - - - - - -
25/10:00am 17.1 WSW 5 7 1020.5 - - - - - - - - -
25/09:30am 16.6 W 6 8 1020.6 - - - - - - - - -
25/09:00am 15.4 W 6 7 1020.5 - - - - - - - - -
25/08:30am 14.6 W 6 8 1020.4 - - - - - - - - -
25/08:00am 13.9 W 7 8 1020.3 - - - - - - - - -
25/07:30am 13.3 WSW 6 8 1019.9 - - - - - - - - -
25/07:00am 13.1 W 7 8 1019.7 - - - - - - - - -
25/06:30am 13.6 WSW 6 8 1019.2 - - - - - - - - -
25/06:00am 13.5 WSW 7 8 1018.7 - - - - - - - - -
25/05:30am 13.5 WSW 7 8 1018.6 - - - - - - - - -
25/05:00am 13.7 WSW 6 8 1018.6 - - - - - - - - -
25/04:30am 13.9 WSW 6 9 1018.4 - - - - - - - - -
25/04:00am 14.1 WSW 7 8 1018.2 - - - - - - - - -
25/03:30am 14.3 WSW 8 10 1017.8 - - - - - - - - -
25/03:00am 13.8 W 8 9 1017.7 - - - - - - - - -
25/02:30am 14.3 W 8 10 1017.6 - - - - - - - - -
25/02:00am 14.5 WSW 10 12 1017.6 - - - - - - - - -
25/01:30am 14.5 W 11 14 1017.8 - - - - - - - - -
25/01:00am 14.8 W 9 13 1017.7 - - - - - - - - -
25/12:30am 15.0 W 9 12 1017.6 - - - - - - - - -
25/12:00am 15.0 W 9 11 1017.7 - - - - - - - - -
 
Date/Time
EST
Temp
°C
Wind Pressure Rain since
9am
mm
Weather Cloud Vis
km
Sea
Height
m
Swell
Dir  Spd
kts
Gust
kts
hPa Trend Height
m
Period
s
Dir
24/11:30pm 15.5 W 11 13 1017.6 - - - - - - - - -
24/11:00pm 15.3 W 10 13 1017.4 - - - - - - - - -
24/10:30pm 15.8 WSW 12 15 1017.3 - - - - - - - - -
24/10:00pm 16.1 WSW 12 17 1017.3 - - - - - - - - -
24/09:30pm 16.3 W 12 16 1017.1 - - - - - - - - -
24/09:00pm 16.4 W 11 16 1016.7 - - - - - - - - -
24/08:30pm 16.9 W 15 21 1016.5 - - - - - - - - -
24/08:00pm 17.1 W 14 18 1016.5 - - - - - - - - -
24/07:30pm 17.2 W 16 24 1016.1 - - - - - - - - -
24/07:00pm 17.3 W 13 18 1015.7 - - - - - - - - -
24/06:30pm 17.9 W 17 24 1015.2 - - - - - - - - -
24/06:17pm 17.9 W 17 27 1015.2 - - - - - - - - -
24/06:00pm 17.9 W 16 22 1014.9 - - - - - - - - -
24/05:30pm 18.4 W 15 25 1014.5 - - - - - - - - -
24/05:23pm 18.7 W 15 25 1014.5 - - - - - - - - -
24/05:00pm 18.8 WSW 12 15 1014.2 - - - - - - - - -
24/04:30pm 19.4 WSW 14 19 1014.0 - - - - - - - - -
24/04:00pm 19.8 WSW 14 23 1013.6 - - - - - - - - -
24/03:30pm 20.4 W 11 17 1012.8 - - - - - - - - -
24/03:00pm 20.5 W 14 20 1012.3 - - - - - - - - -
24/02:30pm 20.7 WSW 16 23 1011.8 - - - - - - - - -
24/02:00pm 20.6 W 21 29 1011.3 - - - - - - - - -
24/01:30pm 20.7 W 23 30 1011.1 - - - - - - - - -
24/01:03pm 20.8 W 15 25 1011.3 - - - - - - - - -
24/01:00pm 21.0 W 16 25 1011.2 - - - - - - - - -

Other Formats:

Comma delimited format used in spreadsheet applications
http://www.bom.gov.au/fwo/IDN60701/IDN60701.95745.axf

JavaScript Object Notation format (JSON) in row-major order
http://www.bom.gov.au/fwo/IDN60701/IDN60701.95745.json